sensor_id;sensor_type;location;lat;lon;timestamp;pressure;altitude;pressure_sealevel;temperature;humidity
43217;BME280;60511;42.686;23.300;2022-12-29T00:01:22;95377.97;;;19.40;29.55
43217;BME280;60511;42.686;23.300;2022-12-29T00:03:22;95538.09;;;20.43;29.25
43217;BME280;60511;42.686;23.300;2022-12-29T00:05:23;95603.91;;;20.86;29.73
43217;BME280;60511;42.686;23.300;2022-12-29T00:07:24;95605.53;;;20.87;29.56
43217;BME280;60511;42.686;23.300;2022-12-29T00:09:25;95613.72;;;20.82;29.50
43217;BME280;60511;42.686;23.300;2022-12-29T00:11:27;95605.53;;;20.87;29.48
43217;BME280;60511;42.686;23.300;2022-12-29T00:13:27;95507.47;;;20.13;29.48
43217;BME280;60511;42.686;23.300;2022-12-29T00:15:46;95569.97;;;20.59;29.51
43217;BME280;60511;42.686;23.300;2022-12-29T00:17:46;95547.06;;;20.39;29.68
43217;BME280;60511;42.686;23.300;2022-12-29T00:19:47;95462.63;;;19.91;29.52
43217;BME280;60511;42.686;23.300;2022-12-29T00:22:06;95553.31;;;20.57;29.66
43217;BME280;60511;42.686;23.300;2022-12-29T00:24:25;95519.66;;;20.19;29.70
43217;BME280;60511;42.686;23.300;2022-12-29T00:26:25;95566.56;;;20.44;29.68
43217;BME280;60511;42.686;23.300;2022-12-29T00:28:44;95617.34;;;20.77;29.68
43217;BME280;60511;42.686;23.300;2022-12-29T00:31:07;95572.84;;;20.62;29.46
43217;BME280;60511;42.686;23.300;2022-12-29T00:33:31;95617.16;;;20.74;29.52
43217;BME280;60511;42.686;23.300;2022-12-29T00:35:54;95632.41;;;20.78;29.61
43217;BME280;60511;42.686;23.300;2022-12-29T00:37:59;95567.34;;;20.45;29.50
43217;BME280;60511;42.686;23.300;2022-12-29T00:40:19;95482.53;;;19.90;29.48
43217;BME280;60511;42.686;23.300;2022-12-29T00:42:38;95586.06;;;20.50;29.40
43217;BME280;60511;42.686;23.300;2022-12-29T00:44:57;95592.09;;;20.56;29.49
43217;BME280;60511;42.686;23.300;2022-12-29T00:46:58;95610.19;;;20.64;29.59
43217;BME280;60511;42.686;23.300;2022-12-29T00:49:04;95530.03;;;20.12;29.59
43217;BME280;60511;42.686;23.300;2022-12-29T00:51:23;95598.78;;;20.58;29.55
43217;BME280;60511;42.686;23.300;2022-12-29T00:53:24;95518.59;;;19.98;29.87
43217;BME280;60511;42.686;23.300;2022-12-29T00:55:24;95621.59;;;20.70;29.68
43217;BME280;60511;42.686;23.300;2022-12-29T00:57:24;95605.41;;;20.61;29.67
43217;BME280;60511;42.686;23.300;2022-12-29T00:59:25;95532.31;;;20.19;29.50
43217;BME280;60511;42.686;23.300;2022-12-29T01:01:25;95500.72;;;19.93;29.66
43217;BME280;60511;42.686;23.300;2022-12-29T01:03:26;95577.50;;;20.48;29.37
43217;BME280;60511;42.686;23.300;2022-12-29T01:05:26;95546.94;;;20.35;29.62
43217;BME280;60511;42.686;23.300;2022-12-29T01:07:26;95532.47;;;20.22;29.34
43217;BME280;60511;42.686;23.300;2022-12-29T01:09:27;95564.03;;;20.39;29.61
43217;BME280;60511;42.686;23.300;2022-12-29T01:11:46;95563.53;;;20.37;29.74
43217;BME280;60511;42.686;23.300;2022-12-29T01:13:46;95548.66;;;20.31;29.65
43217;BME280;60511;42.686;23.300;2022-12-29T01:15:51;95516.00;;;20.15;29.47
43217;BME280;60511;42.686;23.300;2022-12-29T01:17:51;95612.94;;;20.81;29.56
43217;BME280;60511;42.686;23.300;2022-12-29T01:19:51;95543.59;;;20.38;29.46
43217;BME280;60511;42.686;23.300;2022-12-29T01:21:52;95494.28;;;20.03;29.79
43217;BME280;60511;42.686;23.300;2022-12-29T01:23:52;95588.03;;;20.67;29.59
43217;BME280;60511;42.686;23.300;2022-12-29T01:25:52;95573.09;;;20.52;29.33
43217;BME280;60511;42.686;23.300;2022-12-29T01:27:53;95516.78;;;20.16;29.77
43217;BME280;60511;42.686;23.300;2022-12-29T01:29:53;95473.63;;;19.81;29.63
43217;BME280;60511;42.686;23.300;2022-12-29T01:31:53;95577.25;;;20.58;29.58
43217;BME280;60511;42.686;23.300;2022-12-29T01:33:54;95582.56;;;20.50;29.65
43217;BME280;60511;42.686;23.300;2022-12-29T01:35:54;95520.94;;;20.22;29.38
43217;BME280;60511;42.686;23.300;2022-12-29T01:37:55;95615.81;;;20.85;29.58
43217;BME280;60511;42.686;23.300;2022-12-29T01:39:55;95509.38;;;20.21;29.66
43217;BME280;60511;42.686;23.300;2022-12-29T01:41:55;95568.25;;;20.63;29.49
43217;BME280;60511;42.686;23.300;2022-12-29T01:43:57;95602.66;;;20.83;29.76
43217;BME280;60511;42.686;23.300;2022-12-29T01:45:59;95554.09;;;20.48;29.52
43217;BME280;60511;42.686;23.300;2022-12-29T01:48:01;95578.72;;;20.73;29.56
43217;BME280;60511;42.686;23.300;2022-12-29T01:52:32;95500.19;;;20.14;29.77
43217;BME280;60511;42.686;23.300;2022-12-29T01:54:43;95562.69;;;20.59;29.53
43217;BME280;60511;42.686;23.300;2022-12-29T01:56:46;95467.88;;;19.96;29.78
43217;BME280;60511;42.686;23.300;2022-12-29T01:58:54;95497.78;;;20.12;29.72
43217;BME280;60511;42.686;23.300;2022-12-29T02:00:56;95472.63;;;20.08;29.60
43217;BME280;60511;42.686;23.300;2022-12-29T02:02:56;95462.00;;;19.94;29.50
43217;BME280;60511;42.686;23.300;2022-12-29T02:04:57;95594.41;;;20.80;29.74
43217;BME280;60511;42.686;23.300;2022-12-29T02:07:04;95518.47;;;20.43;29.54
43217;BME280;60511;42.686;23.300;2022-12-29T02:09:06;95578.91;;;20.77;29.60
43217;BME280;60511;42.686;23.300;2022-12-29T02:11:06;95529.41;;;20.46;29.46
43217;BME280;60511;42.686;23.300;2022-12-29T02:13:07;95465.22;;;20.05;29.76
43217;BME280;60511;42.686;23.300;2022-12-29T02:15:08;95537.94;;;20.48;29.56
43217;BME280;60511;42.686;23.300;2022-12-29T02:40:50;95584.94;;;20.82;29.36
43217;BME280;60511;42.686;23.300;2022-12-29T02:43:05;95565.09;;;20.70;29.70
43217;BME280;60511;42.686;23.300;2022-12-29T02:49:51;95584.94;;;20.82;29.35
43217;BME280;60511;42.686;23.300;2022-12-29T02:52:04;95464.75;;;20.12;29.46
43217;BME280;60511;42.686;23.300;2022-12-29T02:54:06;95504.03;;;20.30;29.42
43217;BME280;60511;42.686;23.300;2022-12-29T02:56:26;95551.16;;;20.59;29.59
43217;BME280;60511;42.686;23.300;2022-12-29T02:58:26;95497.88;;;20.30;29.56
43217;BME280;60511;42.686;23.300;2022-12-29T03:00:26;95501.22;;;20.35;29.84
43217;BME280;60511;42.686;23.300;2022-12-29T03:07:16;95558.16;;;20.77;29.48
43217;BME280;60511;42.686;23.300;2022-12-29T03:11:34;95497.91;;;20.38;29.66
43217;BME280;60511;42.686;23.300;2022-12-29T03:15:07;95548.34;;;20.73;29.46
43217;BME280;60511;42.686;23.300;2022-12-29T03:17:00;95494.91;;;20.40;29.61
43217;BME280;60511;42.686;23.300;2022-12-29T03:19:21;95515.66;;;20.48;29.46
43217;BME280;60511;42.686;23.300;2022-12-29T03:21:43;95546.44;;;20.82;29.61
43217;BME280;60511;42.686;23.300;2022-12-29T03:24:02;95506.50;;;20.58;29.35
43217;BME280;60511;42.686;23.300;2022-12-29T03:26:08;95439.59;;;20.07;29.69
43217;BME280;60511;42.686;23.300;2022-12-29T03:28:18;95551.34;;;20.80;29.43
43217;BME280;60511;42.686;23.300;2022-12-29T03:30:21;95557.22;;;20.82;29.64
43217;BME280;60511;42.686;23.300;2022-12-29T03:32:23;95528.47;;;20.51;29.70
43217;BME280;60511;42.686;23.300;2022-12-29T03:34:26;95514.53;;;20.49;29.43
43217;BME280;60511;42.686;23.300;2022-12-29T03:36:32;95445.72;;;19.91;29.73
43217;BME280;60511;42.686;23.300;2022-12-29T03:39:02;95561.69;;;20.86;29.66
43217;BME280;60511;42.686;23.300;2022-12-29T03:41:08;95531.53;;;20.58;29.37
43217;BME280;60511;42.686;23.300;2022-12-29T03:43:11;95366.81;;;19.55;29.86
43217;BME280;60511;42.686;23.300;2022-12-29T03:45:13;95456.09;;;20.15;29.61
43217;BME280;60511;42.686;23.300;2022-12-29T03:47:14;95546.13;;;20.75;29.73
43217;BME280;60511;42.686;23.300;2022-12-29T03:49:15;95507.88;;;20.38;29.70
43217;BME280;60511;42.686;23.300;2022-12-29T03:51:15;95491.06;;;20.32;29.59
43217;BME280;60511;42.686;23.300;2022-12-29T03:53:16;95507.22;;;20.32;29.71
43217;BME280;60511;42.686;23.300;2022-12-29T03:55:16;95579.69;;;20.77;29.57
43217;BME280;60511;42.686;23.300;2022-12-29T03:57:16;95459.19;;;20.08;29.40
43217;BME280;60511;42.686;23.300;2022-12-29T03:59:17;95429.22;;;19.83;29.65
43217;BME280;60511;42.686;23.300;2022-12-29T04:01:17;95499.44;;;20.31;29.48
43217;BME280;60511;42.686;23.300;2022-12-29T04:03:18;95533.81;;;20.42;29.76
43217;BME280;60511;42.686;23.300;2022-12-29T04:05:18;95490.38;;;20.09;29.81
43217;BME280;60511;42.686;23.300;2022-12-29T04:07:18;95587.94;;;20.81;29.47
43217;BME280;60511;42.686;23.300;2022-12-29T04:09:19;95503.06;;;20.26;29.44
43217;BME280;60511;42.686;23.300;2022-12-29T04:11:20;95587.44;;;20.79;29.52
43217;BME280;60511;42.686;23.300;2022-12-29T04:13:21;95573.34;;;20.82;29.65
43217;BME280;60511;42.686;23.300;2022-12-29T04:15:21;95479.63;;;20.18;29.47
43217;BME280;60511;42.686;23.300;2022-12-29T04:17:23;95595.69;;;20.82;29.49
43217;BME280;60511;42.686;23.300;2022-12-29T04:19:23;95539.69;;;20.53;29.48
43217;BME280;60511;42.686;23.300;2022-12-29T04:21:24;95541.13;;;20.51;29.58
43217;BME280;60511;42.686;23.300;2022-12-29T04:23:24;95422.28;;;19.82;29.51
43217;BME280;60511;42.686;23.300;2022-12-29T04:25:24;95528.91;;;20.44;29.49
43217;BME280;60511;42.686;23.300;2022-12-29T04:27:25;95506.72;;;20.30;29.30
43217;BME280;60511;42.686;23.300;2022-12-29T04:29:25;95585.06;;;20.77;29.34
43217;BME280;60511;42.686;23.300;2022-12-29T04:31:26;95466.44;;;19.99;29.52
43217;BME280;60511;42.686;23.300;2022-12-29T04:33:26;95291.94;;;18.82;29.37
43217;BME280;60511;42.686;23.300;2022-12-29T04:35:26;95496.88;;;20.17;29.61
43217;BME280;60511;42.686;23.300;2022-12-29T04:37:27;95519.69;;;20.28;29.57
43217;BME280;60511;42.686;23.300;2022-12-29T04:39:27;95545.06;;;20.44;29.65
43217;BME280;60511;42.686;23.300;2022-12-29T04:41:27;95603.13;;;20.77;29.38
43217;BME280;60511;42.686;23.300;2022-12-29T04:43:28;95524.47;;;20.31;29.77
43217;BME280;60511;42.686;23.300;2022-12-29T04:45:28;95593.41;;;20.67;29.61
43217;BME280;60511;42.686;23.300;2022-12-29T04:47:29;95548.31;;;20.33;29.62
43217;BME280;60511;42.686;23.300;2022-12-29T04:49:29;95532.81;;;20.30;29.75
43217;BME280;60511;42.686;23.300;2022-12-29T04:51:29;95563.91;;;20.53;29.21
43217;BME280;60511;42.686;23.300;2022-12-29T04:53:30;95615.59;;;20.73;29.29
43217;BME280;60511;42.686;23.300;2022-12-29T04:55:30;95483.31;;;19.91;29.62
43217;BME280;60511;42.686;23.300;2022-12-29T04:57:30;95476.19;;;19.86;29.49
43217;BME280;60511;42.686;23.300;2022-12-29T04:59:31;95485.53;;;19.89;29.59
43217;BME280;60511;42.686;23.300;2022-12-29T05:01:31;95533.69;;;20.16;29.68
43217;BME280;60511;42.686;23.300;2022-12-29T05:03:32;95483.81;;;19.93;29.63
43217;BME280;60511;42.686;23.300;2022-12-29T05:05:32;95475.56;;;19.89;29.68
43217;BME280;60511;42.686;23.300;2022-12-29T05:07:32;95587.84;;;20.63;29.30
43217;BME280;60511;42.686;23.300;2022-12-29T05:09:33;95627.03;;;20.78;29.41
43217;BME280;60511;42.686;23.300;2022-12-29T05:11:34;95537.22;;;20.25;29.61
43217;BME280;60511;42.686;23.300;2022-12-29T05:13:34;95566.56;;;20.44;29.72
43217;BME280;60511;42.686;23.300;2022-12-29T05:15:34;95575.28;;;20.50;29.49
43217;BME280;60511;42.686;23.300;2022-12-29T05:20:14;95580.53;;;20.55;29.56
43217;BME280;60511;42.686;23.300;2022-12-29T05:22:14;95625.41;;;20.77;29.59
43217;BME280;60511;42.686;23.300;2022-12-29T05:24:15;95585.31;;;20.58;29.54
43217;BME280;60511;42.686;23.300;2022-12-29T05:26:15;95593.41;;;20.58;29.41
43217;BME280;60511;42.686;23.300;2022-12-29T05:28:15;95500.31;;;20.09;29.46
43217;BME280;60511;42.686;23.300;2022-12-29T05:30:16;95543.09;;;20.27;29.54
43217;BME280;60511;42.686;23.300;2022-12-29T05:32:16;95518.50;;;20.12;29.35
43217;BME280;60511;42.686;23.300;2022-12-29T05:34:17;95623.03;;;20.76;29.32
43217;BME280;60511;42.686;23.300;2022-12-29T05:36:17;95464.91;;;19.75;29.55
43217;BME280;60511;42.686;23.300;2022-12-29T05:38:17;95569.41;;;20.39;29.58
43217;BME280;60511;42.686;23.300;2022-12-29T05:40:18;95506.00;;;20.07;29.37
43217;BME280;60511;42.686;23.300;2022-12-29T05:42:18;95498.66;;;19.90;29.34
43217;BME280;60511;42.686;23.300;2022-12-29T05:44:19;95542.13;;;20.23;29.20
43217;BME280;60511;42.686;23.300;2022-12-29T05:46:19;95599.56;;;20.59;29.54
43217;BME280;60511;42.686;23.300;2022-12-29T05:48:19;95540.84;;;20.21;29.63
43217;BME280;60511;42.686;23.300;2022-12-29T05:50:20;95492.47;;;19.90;29.55
43217;BME280;60511;42.686;23.300;2022-12-29T05:52:43;95617.03;;;20.79;29.36
43217;BME280;60511;42.686;23.300;2022-12-29T05:54:43;95601.50;;;20.67;29.49
43217;BME280;60511;42.686;23.300;2022-12-29T05:56:44;95626.84;;;20.75;29.52
43217;BME280;60511;42.686;23.300;2022-12-29T05:58:44;95631.91;;;20.76;29.47
43217;BME280;60511;42.686;23.300;2022-12-29T06:00:45;95532.41;;;20.05;29.49
43217;BME280;60511;42.686;23.300;2022-12-29T06:02:45;95589.03;;;20.48;29.44
43217;BME280;60511;42.686;23.300;2022-12-29T06:04:46;95613.78;;;20.59;29.44
43217;BME280;60511;42.686;23.300;2022-12-29T06:06:46;95614.75;;;20.63;29.52
43217;BME280;60511;42.686;23.300;2022-12-29T06:08:46;95497.06;;;19.89;29.61
43217;BME280;60511;42.686;23.300;2022-12-29T06:10:47;95553.81;;;20.19;29.62
43217;BME280;60511;42.686;23.300;2022-12-29T06:12:47;95547.47;;;20.15;29.43
43217;BME280;60511;42.686;23.300;2022-12-29T06:14:48;95593.63;;;20.48;29.49
43217;BME280;60511;42.686;23.300;2022-12-29T06:16:48;95573.81;;;20.35;29.49
43217;BME280;60511;42.686;23.300;2022-12-29T06:18:48;95649.16;;;20.75;29.46
43217;BME280;60511;42.686;23.300;2022-12-29T06:20:49;95643.00;;;20.75;29.74
43217;BME280;60511;42.686;23.300;2022-12-29T06:22:49;95611.28;;;20.63;29.58
43217;BME280;60511;42.686;23.300;2022-12-29T06:24:50;95548.75;;;20.17;29.57
43217;BME280;60511;42.686;23.300;2022-12-29T06:26:50;95532.88;;;20.07;29.48
43217;BME280;60511;42.686;23.300;2022-12-29T06:28:50;95504.81;;;19.91;29.34
43217;BME280;60511;42.686;23.300;2022-12-29T06:30:51;95642.22;;;20.83;29.21
43217;BME280;60511;42.686;23.300;2022-12-29T06:32:51;95613.63;;;20.56;29.45
43217;BME280;60511;42.686;23.300;2022-12-29T06:34:52;95526.84;;;20.01;29.33
43217;BME280;60511;42.686;23.300;2022-12-29T06:36:52;95568.38;;;20.26;29.63
43217;BME280;60511;42.686;23.300;2022-12-29T06:38:52;95641.25;;;20.79;29.29
43217;BME280;60511;42.686;23.300;2022-12-29T06:40:53;95498.47;;;19.86;29.30
43217;BME280;60511;42.686;23.300;2022-12-29T06:42:53;95649.03;;;20.80;29.46
43217;BME280;60511;42.686;23.300;2022-12-29T06:44:54;95624.19;;;20.52;29.55
43217;BME280;60511;42.686;23.300;2022-12-29T06:46:57;95563.44;;;20.20;29.35
43217;BME280;60511;42.686;23.300;2022-12-29T06:48:58;95527.03;;;20.05;29.47
43217;BME280;60511;42.686;23.300;2022-12-29T06:50:58;95592.38;;;20.45;29.35
43217;BME280;60511;42.686;23.300;2022-12-29T06:52:58;95608.16;;;20.47;29.28
43217;BME280;60511;42.686;23.300;2022-12-29T06:54:59;95575.22;;;20.33;29.48
43217;BME280;60511;42.686;23.300;2022-12-29T06:56:59;95631.88;;;20.67;29.55
43217;BME280;60511;42.686;23.300;2022-12-29T06:59:00;95647.13;;;20.81;29.32
43217;BME280;60511;42.686;23.300;2022-12-29T07:01:01;95587.63;;;20.51;29.30
43217;BME280;60511;42.686;23.300;2022-12-29T07:03:01;95618.25;;;20.64;29.28
43217;BME280;60511;42.686;23.300;2022-12-29T07:05:02;95586.31;;;20.40;29.26
43217;BME280;60511;42.686;23.300;2022-12-29T07:07:02;95646.47;;;20.75;29.35
43217;BME280;60511;42.686;23.300;2022-12-29T07:09:03;95594.56;;;20.43;29.66
43217;BME280;60511;42.686;23.300;2022-12-29T07:11:05;95589.69;;;20.45;29.45
43217;BME280;60511;42.686;23.300;2022-12-29T07:13:05;95544.28;;;20.13;29.31
43217;BME280;60511;42.686;23.300;2022-12-29T07:15:08;95491.19;;;19.87;29.32
43217;BME280;60511;42.686;23.300;2022-12-29T07:17:08;95599.94;;;20.43;29.21
43217;BME280;60511;42.686;23.300;2022-12-29T07:19:08;95430.44;;;19.46;29.26
43217;BME280;60511;42.686;23.300;2022-12-29T07:21:09;95660.47;;;20.95;29.31
43217;BME280;60511;42.686;23.300;2022-12-29T07:23:10;95628.13;;;20.77;29.38
43217;BME280;60511;42.686;23.300;2022-12-29T07:25:11;95583.38;;;20.50;29.33
43217;BME280;60511;42.686;23.300;2022-12-29T07:27:11;95583.38;;;20.50;29.10
43217;BME280;60511;42.686;23.300;2022-12-29T07:29:11;95622.88;;;20.72;29.14
43217;BME280;60511;42.686;23.300;2022-12-29T07:31:20;95594.53;;;20.66;29.01
43217;BME280;60511;42.686;23.300;2022-12-29T07:33:21;95629.56;;;20.83;29.44
43217;BME280;60511;42.686;23.300;2022-12-29T07:35:21;95627.50;;;20.80;29.05
43217;BME280;60511;42.686;23.300;2022-12-29T07:37:22;95602.59;;;20.66;29.29
43217;BME280;60511;42.686;23.300;2022-12-29T07:39:22;95583.84;;;20.52;29.32
43217;BME280;60511;42.686;23.300;2022-12-29T07:41:23;95575.59;;;20.48;29.34
43217;BME280;60511;42.686;23.300;2022-12-29T07:43:23;95570.69;;;20.51;29.13
43217;BME280;60511;42.686;23.300;2022-12-29T07:45:23;95547.72;;;20.36;29.05
43217;BME280;60511;42.686;23.300;2022-12-29T07:47:24;95591.50;;;20.59;29.09
43217;BME280;60511;42.686;23.300;2022-12-29T07:49:24;95662.41;;;21.03;29.06
43217;BME280;60511;42.686;23.300;2022-12-29T07:51:25;95517.72;;;20.11;29.35
43217;BME280;60511;42.686;23.300;2022-12-29T07:53:25;95630.22;;;20.89;29.20
43217;BME280;60511;42.686;23.300;2022-12-29T07:55:25;95579.44;;;20.56;29.20
43217;BME280;60511;42.686;23.300;2022-12-29T07:57:26;95601.50;;;20.67;29.33
43217;BME280;60511;42.686;23.300;2022-12-29T07:59:26;95619.56;;;20.75;29.40
43217;BME280;60511;42.686;23.300;2022-12-29T08:01:27;95635.44;;;20.85;29.02
43217;BME280;60511;42.686;23.300;2022-12-29T08:03:27;95672.72;;;21.10;29.37
43217;BME280;60511;42.686;23.300;2022-12-29T08:05:27;95573.84;;;20.44;29.37
43217;BME280;60511;42.686;23.300;2022-12-29T08:07:28;95571.34;;;20.47;29.32
43217;BME280;60511;42.686;23.300;2022-12-29T08:09:28;95650.03;;;20.93;29.34
43217;BME280;60511;42.686;23.300;2022-12-29T08:11:29;95677.00;;;21.11;29.34
43217;BME280;60511;42.686;23.300;2022-12-29T08:13:29;95443.66;;;19.65;29.36
43217;BME280;60511;42.686;23.300;2022-12-29T08:15:29;95662.59;;;21.06;29.46
43217;BME280;60511;42.686;23.300;2022-12-29T08:17:30;95673.69;;;21.14;29.23
43217;BME280;60511;42.686;23.300;2022-12-29T08:19:30;95595.50;;;20.70;29.30
43217;BME280;60511;42.686;23.300;2022-12-29T08:21:30;95634.00;;;20.88;29.35
43217;BME280;60511;42.686;23.300;2022-12-29T08:23:32;95586.47;;;20.66;29.06
43217;BME280;60511;42.686;23.300;2022-12-29T08:25:32;95649.56;;;21.00;29.36
43217;BME280;60511;42.686;23.300;2022-12-29T08:27:33;95536.19;;;20.35;29.13
43217;BME280;60511;42.686;23.300;2022-12-29T08:29:33;95668.00;;;21.15;28.95
43217;BME280;60511;42.686;23.300;2022-12-29T08:31:33;95607.84;;;20.80;29.16
43217;BME280;60511;42.686;23.300;2022-12-29T08:33:34;95536.00;;;20.32;29.16
43217;BME280;60511;42.686;23.300;2022-12-29T08:35:34;95514.31;;;20.28;29.35
43217;BME280;60511;42.686;23.300;2022-12-29T08:37:35;95544.38;;;20.39;29.21
43217;BME280;60511;42.686;23.300;2022-12-29T08:39:35;95601.84;;;20.74;29.10
43217;BME280;60511;42.686;23.300;2022-12-29T08:41:36;95612.94;;;20.90;29.04
43217;BME280;60511;42.686;23.300;2022-12-29T08:43:36;95505.28;;;20.24;28.95
43217;BME280;60511;42.686;23.300;2022-12-29T08:45:36;95502.09;;;20.22;29.04
43217;BME280;60511;42.686;23.300;2022-12-29T08:47:37;95626.75;;;20.97;29.24
43217;BME280;60511;42.686;23.300;2022-12-29T08:49:37;95644.84;;;21.05;29.11
43217;BME280;60511;42.686;23.300;2022-12-29T08:51:37;95656.09;;;21.16;29.13
43217;BME280;60511;42.686;23.300;2022-12-29T08:53:38;95598.53;;;20.77;29.20
43217;BME280;60511;42.686;23.300;2022-12-29T08:55:38;95635.66;;;21.06;28.91
43217;BME280;60511;42.686;23.300;2022-12-29T08:57:38;95541.59;;;20.53;29.13
43217;BME280;60511;42.686;23.300;2022-12-29T08:59:39;95543.19;;;20.54;28.94
43217;BME280;60511;42.686;23.300;2022-12-29T09:01:39;95386.91;;;19.58;29.32
43217;BME280;60511;42.686;23.300;2022-12-29T09:03:40;95570.66;;;20.73;29.03
43217;BME280;60511;42.686;23.300;2022-12-29T09:05:40;95542.25;;;20.50;29.01
43217;BME280;60511;42.686;23.300;2022-12-29T09:07:41;95547.38;;;20.60;28.97
43217;BME280;60511;42.686;23.300;2022-12-29T09:09:41;95545.19;;;20.71;28.92
43217;BME280;60511;42.686;23.300;2022-12-29T09:11:42;95648.38;;;21.32;29.18
43217;BME280;60511;42.686;23.300;2022-12-29T09:13:42;95616.19;;;21.18;28.79
43217;BME280;60511;42.686;23.300;2022-12-29T09:15:42;95619.06;;;21.13;29.23
43217;BME280;60511;42.686;23.300;2022-12-29T09:17:44;95574.31;;;20.86;29.01
43217;BME280;60511;42.686;23.300;2022-12-29T09:19:45;95633.94;;;21.19;29.00
43217;BME280;60511;42.686;23.300;2022-12-29T09:21:45;95581.50;;;20.99;28.83
43217;BME280;60511;42.686;23.300;2022-12-29T09:23:46;95620.16;;;21.12;29.11
43217;BME280;60511;42.686;23.300;2022-12-29T09:25:47;95607.31;;;21.09;29.04
43217;BME280;60511;42.686;23.300;2022-12-29T09:27:48;95408.88;;;19.91;29.14
43217;BME280;60511;42.686;23.300;2022-12-29T09:29:48;95477.47;;;20.28;28.87
43217;BME280;60511;42.686;23.300;2022-12-29T09:31:48;95575.31;;;20.99;29.02
43217;BME280;60511;42.686;23.300;2022-12-29T09:33:49;95590.53;;;21.12;28.84
43217;BME280;60511;42.686;23.300;2022-12-29T09:35:57;95564.88;;;20.97;29.16
43217;BME280;60511;42.686;23.300;2022-12-29T09:37:57;95530.59;;;20.72;29.31
43217;BME280;60511;42.686;23.300;2022-12-29T09:39:58;95598.66;;;21.30;29.15
43217;BME280;60511;42.686;23.300;2022-12-29T09:44:19;95609.91;;;21.40;29.25
43217;BME280;60511;42.686;23.300;2022-12-29T09:46:28;95564.38;;;21.04;29.29
43217;BME280;60511;42.686;23.300;2022-12-29T09:48:34;95490.88;;;20.60;29.33
43217;BME280;60511;42.686;23.300;2022-12-29T09:50:37;95615.28;;;21.40;29.50
43217;BME280;60511;42.686;23.300;2022-12-29T09:52:48;95494.38;;;20.69;29.38
43217;BME280;60511;42.686;23.300;2022-12-29T09:56:56;95620.66;;;21.40;29.07
43217;BME280;60511;42.686;23.300;2022-12-29T09:59:07;95601.81;;;21.40;29.28
43217;BME280;60511;42.686;23.300;2022-12-29T10:01:51;95546.97;;;21.10;29.28
43217;BME280;60511;42.686;23.300;2022-12-29T10:03:52;95591.25;;;21.44;29.28
43217;BME280;60511;42.686;23.300;2022-12-29T10:06:08;95376.34;;;20.01;29.43
43217;BME280;60511;42.686;23.300;2022-12-29T10:09:23;95596.63;;;21.44;29.13
43217;BME280;60511;42.686;23.300;2022-12-29T10:10:57;95523.22;;;20.95;29.31
43217;BME280;60511;42.686;23.300;2022-12-29T10:13:17;95593.44;;;21.42;29.44
43217;BME280;60511;42.686;23.300;2022-12-29T10:15:46;95578.38;;;21.41;29.53
43217;BME280;60511;42.686;23.300;2022-12-29T10:17:53;95576.81;;;21.40;29.42
43217;BME280;60511;42.686;23.300;2022-12-29T10:22:38;95574.09;;;21.40;29.37
43217;BME280;60511;42.686;23.300;2022-12-29T10:24:41;95559.22;;;21.34;29.32
43217;BME280;60511;42.686;23.300;2022-12-29T10:26:45;95550.97;;;21.21;29.12
43217;BME280;60511;42.686;23.300;2022-12-29T10:28:56;95557.78;;;21.36;29.36
43217;BME280;60511;42.686;23.300;2022-12-29T10:30:58;95420.09;;;20.42;29.29
43217;BME280;60511;42.686;23.300;2022-12-29T10:33:04;95582.03;;;21.45;29.44
43217;BME280;60511;42.686;23.300;2022-12-29T10:35:15;95333.66;;;19.91;29.22
43217;BME280;60511;42.686;23.300;2022-12-29T10:39:43;95490.28;;;20.89;29.17
43217;BME280;60511;42.686;23.300;2022-12-29T10:44:00;95522.78;;;21.19;29.17
43217;BME280;60511;42.686;23.300;2022-12-29T10:46:08;95544.50;;;21.31;29.22
43217;BME280;60511;42.686;23.300;2022-12-29T10:48:20;95544.50;;;21.31;29.38
43217;BME280;60511;42.686;23.300;2022-12-29T10:50:23;95494.09;;;21.05;29.47
43217;BME280;60511;42.686;23.300;2022-12-29T10:52:25;95449.94;;;20.80;29.18
43217;BME280;60511;42.686;23.300;2022-12-29T10:54:36;95365.97;;;20.26;29.44
43217;BME280;60511;42.686;23.300;2022-12-29T10:56:41;95480.66;;;20.97;29.58
43217;BME280;60511;42.686;23.300;2022-12-29T10:58:46;95473.34;;;21.06;29.56
43217;BME280;60511;42.686;23.300;2022-12-29T11:00:53;95454.34;;;20.85;29.41
43217;BME280;60511;42.686;23.300;2022-12-29T11:05:52;95533.56;;;21.45;29.53
43217;BME280;60511;42.686;23.300;2022-12-29T11:08:00;95528.00;;;21.41;29.36
43217;BME280;60511;42.686;23.300;2022-12-29T11:12:25;95523.91;;;21.44;29.50
43217;BME280;60511;42.686;23.300;2022-12-29T11:14:28;95514.72;;;21.45;29.18
43217;BME280;60511;42.686;23.300;2022-12-29T11:16:32;95516.31;;;21.46;29.14
43217;BME280;60511;42.686;23.300;2022-12-29T11:20:38;95464.00;;;21.12;29.48
43217;BME280;60511;42.686;23.300;2022-12-29T11:22:43;95520.56;;;21.47;29.33
43217;BME280;60511;42.686;23.300;2022-12-29T11:24:46;95481.13;;;21.16;29.30
43217;BME280;60511;42.686;23.300;2022-12-29T11:26:49;95478.09;;;21.26;29.46
43217;BME280;60511;42.686;23.300;2022-12-29T11:29:12;95512.66;;;21.51;29.23
43217;BME280;60511;42.686;23.300;2022-12-29T11:31:17;95449.31;;;21.01;29.45
43217;BME280;60511;42.686;23.300;2022-12-29T11:33:18;95407.50;;;20.77;29.39
43217;BME280;60511;42.686;23.300;2022-12-29T11:35:36;95470.97;;;21.22;29.43
43217;BME280;60511;42.686;23.300;2022-12-29T11:37:39;95424.44;;;20.86;29.33
43217;BME280;60511;42.686;23.300;2022-12-29T11:41:51;95502.06;;;21.45;29.48
43217;BME280;60511;42.686;23.300;2022-12-29T11:43:56;95395.78;;;20.73;29.52
43217;BME280;60511;42.686;23.300;2022-12-29T11:45:57;95435.84;;;21.01;29.31
43217;BME280;60511;42.686;23.300;2022-12-29T11:48:04;95501.72;;;21.47;29.66